sensor_id;sensor_type;location;lat;lon;timestamp;temperature;humidity
7694;DHT22;3889;48.162;11.510;2022-08-26T00:02:03;19.20;99.90
7694;DHT22;3889;48.162;11.510;2022-08-26T00:04:31;19.20;99.90
7694;DHT22;3889;48.162;11.510;2022-08-26T00:06:59;19.10;99.90
7694;DHT22;3889;48.162;11.510;2022-08-26T00:09:29;19.20;99.90
7694;DHT22;3889;48.162;11.510;2022-08-26T00:12:03;19.10;99.90
7694;DHT22;3889;48.162;11.510;2022-08-26T00:14:31;19.20;99.90
7694;DHT22;3889;48.162;11.510;2022-08-26T00:16:58;19.20;99.90
7694;DHT22;3889;48.162;11.510;2022-08-26T00:19:26;19.10;99.90
7694;DHT22;3889;48.162;11.510;2022-08-26T00:21:54;19.10;99.90
7694;DHT22;3889;48.162;11.510;2022-08-26T00:24:22;19.00;99.90
7694;DHT22;3889;48.162;11.510;2022-08-26T00:26:52;19.00;99.90
7694;DHT22;3889;48.162;11.510;2022-08-26T00:29:20;19.00;99.90
7694;DHT22;3889;48.162;11.510;2022-08-26T00:31:48;19.00;99.90
7694;DHT22;3889;48.162;11.510;2022-08-26T00:34:16;19.00;99.90
7694;DHT22;3889;48.162;11.510;2022-08-26T00:36:45;18.90;99.90
7694;DHT22;3889;48.162;11.510;2022-08-26T00:39:17;18.90;99.90
7694;DHT22;3889;48.162;11.510;2022-08-26T00:41:46;18.80;99.90
7694;DHT22;3889;48.162;11.510;2022-08-26T00:44:16;18.90;99.90
7694;DHT22;3889;48.162;11.510;2022-08-26T00:46:48;18.70;99.90
7694;DHT22;3889;48.162;11.510;2022-08-26T00:49:20;18.70;99.90
7694;DHT22;3889;48.162;11.510;2022-08-26T00:51:52;18.70;99.90
7694;DHT22;3889;48.162;11.510;2022-08-26T00:54:24;18.70;99.90
7694;DHT22;3889;48.162;11.510;2022-08-26T00:56:57;18.70;99.90
7694;DHT22;3889;48.162;11.510;2022-08-26T00:59:27;18.70;99.90
7694;DHT22;3889;48.162;11.510;2022-08-26T01:01:59;18.70;99.90
7694;DHT22;3889;48.162;11.510;2022-08-26T01:04:29;18.70;99.90
7694;DHT22;3889;48.162;11.510;2022-08-26T01:06:59;18.70;99.90
7694;DHT22;3889;48.162;11.510;2022-08-26T01:09:28;18.70;99.90
7694;DHT22;3889;48.162;11.510;2022-08-26T01:11:58;18.70;99.90
7694;DHT22;3889;48.162;11.510;2022-08-26T01:14:32;18.60;99.90
7694;DHT22;3889;48.162;11.510;2022-08-26T01:17:04;18.60;99.90
7694;DHT22;3889;48.162;11.510;2022-08-26T01:19:39;18.50;99.90
7694;DHT22;3889;48.162;11.510;2022-08-26T01:22:13;18.50;99.90
7694;DHT22;3889;48.162;11.510;2022-08-26T01:24:45;18.50;99.90
7694;DHT22;3889;48.162;11.510;2022-08-26T01:27:17;18.50;99.90
7694;DHT22;3889;48.162;11.510;2022-08-26T01:29:49;18.50;99.90
7694;DHT22;3889;48.162;11.510;2022-08-26T01:32:21;18.50;99.90
7694;DHT22;3889;48.162;11.510;2022-08-26T01:34:51;18.40;99.90
7694;DHT22;3889;48.162;11.510;2022-08-26T01:37:22;18.40;99.90
7694;DHT22;3889;48.162;11.510;2022-08-26T01:39:54;18.40;99.90
7694;DHT22;3889;48.162;11.510;2022-08-26T01:42:24;18.50;99.90
7694;DHT22;3889;48.162;11.510;2022-08-26T01:44:57;18.50;99.90
7694;DHT22;3889;48.162;11.510;2022-08-26T01:47:29;18.40;99.90
7694;DHT22;3889;48.162;11.510;2022-08-26T01:49:59;18.40;99.90
7694;DHT22;3889;48.162;11.510;2022-08-26T01:52:29;18.40;99.90
7694;DHT22;3889;48.162;11.510;2022-08-26T01:55:00;18.40;99.90
7694;DHT22;3889;48.162;11.510;2022-08-26T01:57:29;18.40;99.90
7694;DHT22;3889;48.162;11.510;2022-08-26T02:00:00;18.40;99.90
7694;DHT22;3889;48.162;11.510;2022-08-26T02:02:30;18.40;99.90
7694;DHT22;3889;48.162;11.510;2022-08-26T02:05:01;18.40;99.90
7694;DHT22;3889;48.162;11.510;2022-08-26T02:07:32;18.30;99.90
7694;DHT22;3889;48.162;11.510;2022-08-26T02:10:02;18.40;99.90
7694;DHT22;3889;48.162;11.510;2022-08-26T02:12:32;18.30;99.90
7694;DHT22;3889;48.162;11.510;2022-08-26T02:15:04;18.30;99.90
7694;DHT22;3889;48.162;11.510;2022-08-26T02:17:38;18.30;99.90
7694;DHT22;3889;48.162;11.510;2022-08-26T02:20:07;18.20;99.90
7694;DHT22;3889;48.162;11.510;2022-08-26T02:22:41;18.20;99.90
7694;DHT22;3889;48.162;11.510;2022-08-26T02:25:18;18.20;99.90
7694;DHT22;3889;48.162;11.510;2022-08-26T02:27:49;18.20;99.90
7694;DHT22;3889;48.162;11.510;2022-08-26T02:30:22;18.20;99.90
7694;DHT22;3889;48.162;11.510;2022-08-26T02:32:51;18.20;99.90
7694;DHT22;3889;48.162;11.510;2022-08-26T02:35:22;18.10;99.90
7694;DHT22;3889;48.162;11.510;2022-08-26T02:37:50;18.10;99.90
7694;DHT22;3889;48.162;11.510;2022-08-26T02:40:23;18.10;99.90
7694;DHT22;3889;48.162;11.510;2022-08-26T02:42:52;18.10;99.90
7694;DHT22;3889;48.162;11.510;2022-08-26T02:45:22;18.10;99.90
7694;DHT22;3889;48.162;11.510;2022-08-26T02:47:52;18.00;99.90
7694;DHT22;3889;48.162;11.510;2022-08-26T02:50:22;18.00;99.90
7694;DHT22;3889;48.162;11.510;2022-08-26T02:52:51;17.90;99.90
7694;DHT22;3889;48.162;11.510;2022-08-26T02:55:20;17.90;99.90
7694;DHT22;3889;48.162;11.510;2022-08-26T02:57:50;18.00;99.90
7694;DHT22;3889;48.162;11.510;2022-08-26T03:00:18;18.00;99.90
7694;DHT22;3889;48.162;11.510;2022-08-26T03:02:46;18.10;99.90
7694;DHT22;3889;48.162;11.510;2022-08-26T03:05:15;18.10;99.90
7694;DHT22;3889;48.162;11.510;2022-08-26T03:07:43;18.10;99.90
7694;DHT22;3889;48.162;11.510;2022-08-26T03:10:11;18.10;99.90
7694;DHT22;3889;48.162;11.510;2022-08-26T03:12:41;18.00;99.90
7694;DHT22;3889;48.162;11.510;2022-08-26T03:15:14;18.00;99.90
7694;DHT22;3889;48.162;11.510;2022-08-26T03:17:44;18.00;99.90
7694;DHT22;3889;48.162;11.510;2022-08-26T03:20:13;17.90;99.90
7694;DHT22;3889;48.162;11.510;2022-08-26T03:22:45;17.90;99.90
7694;DHT22;3889;48.162;11.510;2022-08-26T03:25:16;17.90;99.90
7694;DHT22;3889;48.162;11.510;2022-08-26T03:27:45;18.00;99.90
7694;DHT22;3889;48.162;11.510;2022-08-26T03:30:14;17.90;99.90
7694;DHT22;3889;48.162;11.510;2022-08-26T03:33:00;17.90;99.90
7694;DHT22;3889;48.162;11.510;2022-08-26T03:35:29;17.90;99.90
7694;DHT22;3889;48.162;11.510;2022-08-26T03:37:57;17.90;99.90
7694;DHT22;3889;48.162;11.510;2022-08-26T03:40:27;18.00;99.90
7694;DHT22;3889;48.162;11.510;2022-08-26T03:42:56;18.00;99.90
7694;DHT22;3889;48.162;11.510;2022-08-26T03:45:26;18.00;99.90
7694;DHT22;3889;48.162;11.510;2022-08-26T03:47:54;17.90;99.90
7694;DHT22;3889;48.162;11.510;2022-08-26T03:50:24;17.90;99.90
7694;DHT22;3889;48.162;11.510;2022-08-26T03:52:53;17.90;99.90
7694;DHT22;3889;48.162;11.510;2022-08-26T03:55:23;17.90;99.90
7694;DHT22;3889;48.162;11.510;2022-08-26T03:57:53;17.90;99.90
7694;DHT22;3889;48.162;11.510;2022-08-26T04:00:23;18.00;99.90
7694;DHT22;3889;48.162;11.510;2022-08-26T04:02:51;18.00;99.90
7694;DHT22;3889;48.162;11.510;2022-08-26T04:05:20;17.90;99.90
7694;DHT22;3889;48.162;11.510;2022-08-26T04:07:50;17.90;99.90
7694;DHT22;3889;48.162;11.510;2022-08-26T04:10:19;17.90;99.90
7694;DHT22;3889;48.162;11.510;2022-08-26T04:12:55;17.90;99.90
7694;DHT22;3889;48.162;11.510;2022-08-26T04:15:27;17.90;99.90
7694;DHT22;3889;48.162;11.510;2022-08-26T04:17:55;17.90;99.90
7694;DHT22;3889;48.162;11.510;2022-08-26T04:20:23;17.90;99.90
7694;DHT22;3889;48.162;11.510;2022-08-26T04:22:51;17.90;99.90
7694;DHT22;3889;48.162;11.510;2022-08-26T04:25:19;17.90;99.90
7694;DHT22;3889;48.162;11.510;2022-08-26T04:27:49;17.90;99.90
7694;DHT22;3889;48.162;11.510;2022-08-26T04:30:18;17.90;99.90
7694;DHT22;3889;48.162;11.510;2022-08-26T04:32:48;17.80;99.90
7694;DHT22;3889;48.162;11.510;2022-08-26T04:35:16;17.90;99.90
7694;DHT22;3889;48.162;11.510;2022-08-26T04:37:51;17.90;99.90
7694;DHT22;3889;48.162;11.510;2022-08-26T04:40:19;17.90;99.90
7694;DHT22;3889;48.162;11.510;2022-08-26T04:42:47;17.90;99.90
7694;DHT22;3889;48.162;11.510;2022-08-26T04:45:16;17.90;99.90
7694;DHT22;3889;48.162;11.510;2022-08-26T04:47:52;17.90;99.90
7694;DHT22;3889;48.162;11.510;2022-08-26T04:50:22;18.10;99.90
7694;DHT22;3889;48.162;11.510;2022-08-26T04:52:52;18.10;99.90
7694;DHT22;3889;48.162;11.510;2022-08-26T04:55:20;18.20;99.90
7694;DHT22;3889;48.162;11.510;2022-08-26T04:58:04;18.20;99.90
7694;DHT22;3889;48.162;11.510;2022-08-26T05:00:36;18.30;99.90
7694;DHT22;3889;48.162;11.510;2022-08-26T05:03:05;18.40;99.90
7694;DHT22;3889;48.162;11.510;2022-08-26T05:05:37;18.40;99.90
7694;DHT22;3889;48.162;11.510;2022-08-26T05:08:05;18.30;99.90
7694;DHT22;3889;48.162;11.510;2022-08-26T05:10:38;18.40;99.90
7694;DHT22;3889;48.162;11.510;2022-08-26T05:13:06;18.40;99.90
7694;DHT22;3889;48.162;11.510;2022-08-26T05:15:37;18.50;99.90
7694;DHT22;3889;48.162;11.510;2022-08-26T05:18:08;18.50;99.90
7694;DHT22;3889;48.162;11.510;2022-08-26T05:20:38;18.50;99.90
7694;DHT22;3889;48.162;11.510;2022-08-26T05:23:07;18.50;99.90
7694;DHT22;3889;48.162;11.510;2022-08-26T05:25:36;18.60;99.90
7694;DHT22;3889;48.162;11.510;2022-08-26T05:28:05;18.60;99.90
7694;DHT22;3889;48.162;11.510;2022-08-26T05:30:33;18.60;99.90
7694;DHT22;3889;48.162;11.510;2022-08-26T05:33:01;18.70;99.90
7694;DHT22;3889;48.162;11.510;2022-08-26T05:35:31;18.70;99.90
7694;DHT22;3889;48.162;11.510;2022-08-26T05:38:01;18.60;99.90
7694;DHT22;3889;48.162;11.510;2022-08-26T05:40:33;18.60;99.90
7694;DHT22;3889;48.162;11.510;2022-08-26T05:43:02;18.70;99.90
7694;DHT22;3889;48.162;11.510;2022-08-26T05:45:36;18.60;99.90
7694;DHT22;3889;48.162;11.510;2022-08-26T05:48:12;18.70;99.90
7694;DHT22;3889;48.162;11.510;2022-08-26T05:50:44;18.70;99.90
7694;DHT22;3889;48.162;11.510;2022-08-26T05:53:14;18.70;99.90
7694;DHT22;3889;48.162;11.510;2022-08-26T05:55:45;18.70;99.90
7694;DHT22;3889;48.162;11.510;2022-08-26T05:58:13;18.70;99.90
7694;DHT22;3889;48.162;11.510;2022-08-26T06:00:43;18.70;99.90
7694;DHT22;3889;48.162;11.510;2022-08-26T06:03:11;18.60;99.90
7694;DHT22;3889;48.162;11.510;2022-08-26T06:05:40;18.70;99.90
7694;DHT22;3889;48.162;11.510;2022-08-26T06:08:11;18.70;99.90
7694;DHT22;3889;48.162;11.510;2022-08-26T06:10:44;18.80;99.90
7694;DHT22;3889;48.162;11.510;2022-08-26T06:13:15;18.70;99.90
7694;DHT22;3889;48.162;11.510;2022-08-26T06:15:46;18.80;99.90
7694;DHT22;3889;48.162;11.510;2022-08-26T06:18:16;18.90;99.90
7694;DHT22;3889;48.162;11.510;2022-08-26T06:20:45;18.90;99.90
7694;DHT22;3889;48.162;11.510;2022-08-26T06:23:26;19.00;99.90
7694;DHT22;3889;48.162;11.510;2022-08-26T06:26:21;19.00;99.90
7694;DHT22;3889;48.162;11.510;2022-08-26T06:28:50;19.10;99.90
7694;DHT22;3889;48.162;11.510;2022-08-26T06:31:18;19.10;99.90
7694;DHT22;3889;48.162;11.510;2022-08-26T06:33:46;19.20;99.90
7694;DHT22;3889;48.162;11.510;2022-08-26T06:36:15;19.20;99.90
7694;DHT22;3889;48.162;11.510;2022-08-26T06:38:47;19.20;99.90
7694;DHT22;3889;48.162;11.510;2022-08-26T06:41:15;19.30;99.90
7694;DHT22;3889;48.162;11.510;2022-08-26T06:43:46;19.30;99.90
7694;DHT22;3889;48.162;11.510;2022-08-26T06:46:20;19.30;99.90
7694;DHT22;3889;48.162;11.510;2022-08-26T06:48:52;19.40;99.90
7694;DHT22;3889;48.162;11.510;2022-08-26T06:51:22;19.40;99.90
7694;DHT22;3889;48.162;11.510;2022-08-26T06:53:54;19.40;99.90
7694;DHT22;3889;48.162;11.510;2022-08-26T06:56:27;19.40;99.90
7694;DHT22;3889;48.162;11.510;2022-08-26T06:58:55;19.40;99.90
7694;DHT22;3889;48.162;11.510;2022-08-26T07:01:26;19.50;99.90
7694;DHT22;3889;48.162;11.510;2022-08-26T07:03:56;19.50;99.90
7694;DHT22;3889;48.162;11.510;2022-08-26T07:06:26;19.60;99.90
7694;DHT22;3889;48.162;11.510;2022-08-26T07:09:02;19.70;99.90
7694;DHT22;3889;48.162;11.510;2022-08-26T07:11:31;19.70;99.90
7694;DHT22;3889;48.162;11.510;2022-08-26T07:13:59;19.70;99.90
7694;DHT22;3889;48.162;11.510;2022-08-26T07:16:27;19.80;99.90
7694;DHT22;3889;48.162;11.510;2022-08-26T07:18:56;19.90;99.90
7694;DHT22;3889;48.162;11.510;2022-08-26T07:21:27;19.90;99.90
7694;DHT22;3889;48.162;11.510;2022-08-26T07:23:55;20.00;99.90
7694;DHT22;3889;48.162;11.510;2022-08-26T07:26:29;20.00;99.90
7694;DHT22;3889;48.162;11.510;2022-08-26T07:28:58;20.10;99.90
7694;DHT22;3889;48.162;11.510;2022-08-26T07:31:29;20.10;99.90
7694;DHT22;3889;48.162;11.510;2022-08-26T07:34:05;20.20;99.90
7694;DHT22;3889;48.162;11.510;2022-08-26T07:36:35;20.40;99.90
7694;DHT22;3889;48.162;11.510;2022-08-26T07:39:04;20.50;99.90
7694;DHT22;3889;48.162;11.510;2022-08-26T07:41:33;20.50;99.90
7694;DHT22;3889;48.162;11.510;2022-08-26T07:44:02;20.60;99.90
7694;DHT22;3889;48.162;11.510;2022-08-26T07:46:30;20.60;99.90
7694;DHT22;3889;48.162;11.510;2022-08-26T07:48:58;20.70;99.90
7694;DHT22;3889;48.162;11.510;2022-08-26T07:51:26;20.80;99.90
7694;DHT22;3889;48.162;11.510;2022-08-26T07:53:55;20.80;99.90
7694;DHT22;3889;48.162;11.510;2022-08-26T07:56:23;20.90;99.90
7694;DHT22;3889;48.162;11.510;2022-08-26T07:58:53;20.90;99.90
7694;DHT22;3889;48.162;11.510;2022-08-26T08:01:23;21.10;99.90
7694;DHT22;3889;48.162;11.510;2022-08-26T08:03:53;21.10;99.90
7694;DHT22;3889;48.162;11.510;2022-08-26T08:06:25;21.20;99.90
7694;DHT22;3889;48.162;11.510;2022-08-26T08:08:55;21.20;99.90
7694;DHT22;3889;48.162;11.510;2022-08-26T08:11:23;21.30;99.90
7694;DHT22;3889;48.162;11.510;2022-08-26T08:13:57;21.40;99.90
7694;DHT22;3889;48.162;11.510;2022-08-26T08:16:28;21.40;99.90
7694;DHT22;3889;48.162;11.510;2022-08-26T08:18:59;21.40;99.90
7694;DHT22;3889;48.162;11.510;2022-08-26T08:21:29;21.50;99.90
7694;DHT22;3889;48.162;11.510;2022-08-26T08:23:57;21.60;99.90
7694;DHT22;3889;48.162;11.510;2022-08-26T08:26:27;21.60;99.90
7694;DHT22;3889;48.162;11.510;2022-08-26T08:28:56;21.70;99.90
7694;DHT22;3889;48.162;11.510;2022-08-26T08:31:27;21.70;99.90
7694;DHT22;3889;48.162;11.510;2022-08-26T08:34:15;21.80;99.90
7694;DHT22;3889;48.162;11.510;2022-08-26T08:36:44;21.90;99.90
7694;DHT22;3889;48.162;11.510;2022-08-26T08:39:12;22.00;99.90
7694;DHT22;3889;48.162;11.510;2022-08-26T08:41:50;22.10;99.90
7694;DHT22;3889;48.162;11.510;2022-08-26T08:44:23;22.20;99.90
7694;DHT22;3889;48.162;11.510;2022-08-26T08:46:59;22.20;99.90
7694;DHT22;3889;48.162;11.510;2022-08-26T08:49:29;22.50;99.90
7694;DHT22;3889;48.162;11.510;2022-08-26T08:52:03;22.90;99.90
7694;DHT22;3889;48.162;11.510;2022-08-26T08:54:33;23.00;99.90
7694;DHT22;3889;48.162;11.510;2022-08-26T08:57:04;23.00;99.90
7694;DHT22;3889;48.162;11.510;2022-08-26T08:59:41;23.00;99.90
7694;DHT22;3889;48.162;11.510;2022-08-26T09:02:21;23.00;99.90
7694;DHT22;3889;48.162;11.510;2022-08-26T09:05:14;23.10;99.90
7694;DHT22;3889;48.162;11.510;2022-08-26T09:07:47;23.30;99.90
7694;DHT22;3889;48.162;11.510;2022-08-26T09:10:25;23.30;99.90
7694;DHT22;3889;48.162;11.510;2022-08-26T09:12:54;23.60;99.90
7694;DHT22;3889;48.162;11.510;2022-08-26T09:15:26;23.80;99.90
7694;DHT22;3889;48.162;11.510;2022-08-26T09:18:01;23.90;99.90
7694;DHT22;3889;48.162;11.510;2022-08-26T09:20:37;24.30;99.90
7694;DHT22;3889;48.162;11.510;2022-08-26T09:23:11;24.50;99.90
7694;DHT22;3889;48.162;11.510;2022-08-26T09:25:45;24.90;99.90
7694;DHT22;3889;48.162;11.510;2022-08-26T09:28:16;25.00;99.90
7694;DHT22;3889;48.162;11.510;2022-08-26T09:31:00;25.00;99.90
7694;DHT22;3889;48.162;11.510;2022-08-26T09:33:36;25.30;99.90
7694;DHT22;3889;48.162;11.510;2022-08-26T09:36:16;25.50;99.90
7694;DHT22;3889;48.162;11.510;2022-08-26T09:38:50;25.50;99.90
7694;DHT22;3889;48.162;11.510;2022-08-26T09:41:24;25.70;99.90
7694;DHT22;3889;48.162;11.510;2022-08-26T09:44:11;25.90;99.90
7694;DHT22;3889;48.162;11.510;2022-08-26T09:46:45;26.00;99.90
7694;DHT22;3889;48.162;11.510;2022-08-26T09:49:30;26.10;99.90
7694;DHT22;3889;48.162;11.510;2022-08-26T09:52:16;26.20;99.90
7694;DHT22;3889;48.162;11.510;2022-08-26T09:55:00;26.00;99.90
7694;DHT22;3889;48.162;11.510;2022-08-26T09:57:31;26.20;99.90
7694;DHT22;3889;48.162;11.510;2022-08-26T10:00:00;26.10;99.90
7694;DHT22;3889;48.162;11.510;2022-08-26T10:02:37;26.10;99.90
7694;DHT22;3889;48.162;11.510;2022-08-26T10:05:16;26.10;99.90
7694;DHT22;3889;48.162;11.510;2022-08-26T10:07:48;25.90;99.90
7694;DHT22;3889;48.162;11.510;2022-08-26T10:10:20;26.10;99.90
7694;DHT22;3889;48.162;11.510;2022-08-26T10:13:00;26.30;99.90
7694;DHT22;3889;48.162;11.510;2022-08-26T10:15:39;26.40;99.90
7694;DHT22;3889;48.162;11.510;2022-08-26T10:18:19;26.50;99.90
7694;DHT22;3889;48.162;11.510;2022-08-26T10:20:54;26.30;99.90
7694;DHT22;3889;48.162;11.510;2022-08-26T10:23:25;26.50;99.90
7694;DHT22;3889;48.162;11.510;2022-08-26T10:25:58;26.50;99.90
7694;DHT22;3889;48.162;11.510;2022-08-26T10:28:31;26.50;99.90
7694;DHT22;3889;48.162;11.510;2022-08-26T10:31:06;26.60;99.90
7694;DHT22;3889;48.162;11.510;2022-08-26T10:33:38;26.80;99.90
7694;DHT22;3889;48.162;11.510;2022-08-26T10:36:10;26.90;99.90
7694;DHT22;3889;48.162;11.510;2022-08-26T10:39:17;26.60;99.90
7694;DHT22;3889;48.162;11.510;2022-08-26T10:41:48;26.90;99.90
7694;DHT22;3889;48.162;11.510;2022-08-26T10:44:18;26.90;99.90
7694;DHT22;3889;48.162;11.510;2022-08-26T10:46:51;26.80;99.90
7694;DHT22;3889;48.162;11.510;2022-08-26T10:49:22;26.80;99.90
7694;DHT22;3889;48.162;11.510;2022-08-26T10:51:54;26.90;99.90
7694;DHT22;3889;48.162;11.510;2022-08-26T10:54:30;27.00;99.90
7694;DHT22;3889;48.162;11.510;2022-08-26T10:57:03;26.90;99.90
7694;DHT22;3889;48.162;11.510;2022-08-26T10:59:47;26.50;99.90
7694;DHT22;3889;48.162;11.510;2022-08-26T11:02:22;26.10;99.90
7694;DHT22;3889;48.162;11.510;2022-08-26T11:04:55;26.10;99.90
7694;DHT22;3889;48.162;11.510;2022-08-26T11:07:35;26.10;99.90
7694;DHT22;3889;48.162;11.510;2022-08-26T11:10:07;25.80;99.90
7694;DHT22;3889;48.162;11.510;2022-08-26T11:13:02;25.50;99.90
7694;DHT22;3889;48.162;11.510;2022-08-26T11:18:50;26.00;99.90
7694;DHT22;3889;48.162;11.510;2022-08-26T11:21:44;26.30;99.90
7694;DHT22;3889;48.162;11.510;2022-08-26T11:28:01;26.70;99.90
7694;DHT22;3889;48.162;11.510;2022-08-26T11:30:46;26.40;99.90
7694;DHT22;3889;48.162;11.510;2022-08-26T11:33:45;26.20;99.90
7694;DHT22;3889;48.162;11.510;2022-08-26T11:36:34;26.30;99.90
7694;DHT22;3889;48.162;11.510;2022-08-26T11:41:58;26.80;99.90
7694;DHT22;3889;48.162;11.510;2022-08-26T11:44:35;27.00;99.90
7694;DHT22;3889;48.162;11.510;2022-08-26T11:47:04;27.20;99.90
7694;DHT22;3889;48.162;11.510;2022-08-26T11:49:37;27.10;99.90
7694;DHT22;3889;48.162;11.510;2022-08-26T11:52:15;27.00;99.90
7694;DHT22;3889;48.162;11.510;2022-08-26T11:55:01;27.00;99.90
7694;DHT22;3889;48.162;11.510;2022-08-26T11:57:32;27.20;99.90
7694;DHT22;3889;48.162;11.510;2022-08-26T12:00:02;27.40;99.90
7694;DHT22;3889;48.162;11.510;2022-08-26T12:02:33;27.40;99.90
7694;DHT22;3889;48.162;11.510;2022-08-26T12:05:02;27.50;99.90
7694;DHT22;3889;48.162;11.510;2022-08-26T12:07:30;27.20;99.90
7694;DHT22;3889;48.162;11.510;2022-08-26T12:10:03;27.30;99.90
7694;DHT22;3889;48.162;11.510;2022-08-26T12:12:33;27.40;99.90
7694;DHT22;3889;48.162;11.510;2022-08-26T12:15:14;27.40;99.90
7694;DHT22;3889;48.162;11.510;2022-08-26T12:17:44;27.60;99.90
7694;DHT22;3889;48.162;11.510;2022-08-26T12:20:28;27.60;99.90
7694;DHT22;3889;48.162;11.510;2022-08-26T12:23:25;28.10;99.90
7694;DHT22;3889;48.162;11.510;2022-08-26T12:26:04;28.20;99.90
7694;DHT22;3889;48.162;11.510;2022-08-26T12:28:41;28.20;99.90
7694;DHT22;3889;48.162;11.510;2022-08-26T12:31:10;28.00;99.90
7694;DHT22;3889;48.162;11.510;2022-08-26T12:33:43;28.20;99.90
7694;DHT22;3889;48.162;11.510;2022-08-26T12:36:11;28.50;99.90
7694;DHT22;3889;48.162;11.510;2022-08-26T12:38:39;28.30;99.90
7694;DHT22;3889;48.162;11.510;2022-08-26T12:41:08;28.50;99.90
7694;DHT22;3889;48.162;11.510;2022-08-26T12:43:39;28.20;99.90
7694;DHT22;3889;48.162;11.510;2022-08-26T12:46:10;28.20;99.90
7694;DHT22;3889;48.162;11.510;2022-08-26T12:48:40;28.10;99.90
7694;DHT22;3889;48.162;11.510;2022-08-26T12:51:20;27.80;99.90
7694;DHT22;3889;48.162;11.510;2022-08-26T12:53:48;27.80;99.90
7694;DHT22;3889;48.162;11.510;2022-08-26T12:56:21;28.20;99.90
7694;DHT22;3889;48.162;11.510;2022-08-26T12:59:05;28.30;99.90
7694;DHT22;3889;48.162;11.510;2022-08-26T13:01:39;28.10;99.90
7694;DHT22;3889;48.162;11.510;2022-08-26T13:04:30;28.20;99.90
7694;DHT22;3889;48.162;11.510;2022-08-26T13:07:16;28.50;99.90
7694;DHT22;3889;48.162;11.510;2022-08-26T13:09:46;28.80;99.90
7694;DHT22;3889;48.162;11.510;2022-08-26T13:12:28;28.90;99.90
7694;DHT22;3889;48.162;11.510;2022-08-26T13:14:57;28.80;99.90
7694;DHT22;3889;48.162;11.510;2022-08-26T13:17:26;28.90;99.90
7694;DHT22;3889;48.162;11.510;2022-08-26T13:19:55;28.90;99.90
7694;DHT22;3889;48.162;11.510;2022-08-26T13:22:29;28.80;99.90
7694;DHT22;3889;48.162;11.510;2022-08-26T13:24:57;28.90;99.90
7694;DHT22;3889;48.162;11.510;2022-08-26T13:27:27;28.80;99.90
7694;DHT22;3889;48.162;11.510;2022-08-26T13:29:55;28.80;99.90
7694;DHT22;3889;48.162;11.510;2022-08-26T13:32:24;29.00;99.90
7694;DHT22;3889;48.162;11.510;2022-08-26T13:34:54;29.10;99.90
7694;DHT22;3889;48.162;11.510;2022-08-26T13:37:23;28.90;99.90
7694;DHT22;3889;48.162;11.510;2022-08-26T13:40:02;28.60;99.90
7694;DHT22;3889;48.162;11.510;2022-08-26T13:42:32;28.20;99.90
7694;DHT22;3889;48.162;11.510;2022-08-26T13:45:00;27.90;99.90
7694;DHT22;3889;48.162;11.510;2022-08-26T13:47:28;27.70;99.90
7694;DHT22;3889;48.162;11.510;2022-08-26T13:49:56;27.70;99.90
7694;DHT22;3889;48.162;11.510;2022-08-26T13:52:25;27.60;99.90
7694;DHT22;3889;48.162;11.510;2022-08-26T13:54:57;27.70;99.90
7694;DHT22;3889;48.162;11.510;2022-08-26T13:57:25;27.90;99.90
7694;DHT22;3889;48.162;11.510;2022-08-26T13:59:55;28.00;99.90
7694;DHT22;3889;48.162;11.510;2022-08-26T14:02:24;28.10;99.90
7694;DHT22;3889;48.162;11.510;2022-08-26T14:04:53;28.20;99.90
7694;DHT22;3889;48.162;11.510;2022-08-26T14:07:21;28.20;99.90
7694;DHT22;3889;48.162;11.510;2022-08-26T14:09:50;28.30;99.90
7694;DHT22;3889;48.162;11.510;2022-08-26T14:12:18;28.20;99.90
7694;DHT22;3889;48.162;11.510;2022-08-26T14:14:46;28.20;99.90
7694;DHT22;3889;48.162;11.510;2022-08-26T14:17:18;28.10;99.90
7694;DHT22;3889;48.162;11.510;2022-08-26T14:19:48;27.90;99.90
7694;DHT22;3889;48.162;11.510;2022-08-26T14:22:18;27.80;99.90
7694;DHT22;3889;48.162;11.510;2022-08-26T14:24:46;27.90;99.90
7694;DHT22;3889;48.162;11.510;2022-08-26T14:27:14;27.90;99.90
7694;DHT22;3889;48.162;11.510;2022-08-26T14:29:42;27.80;99.90
7694;DHT22;3889;48.162;11.510;2022-08-26T14:32:21;27.90;99.90
7694;DHT22;3889;48.162;11.510;2022-08-26T14:34:50;27.60;99.90
7694;DHT22;3889;48.162;11.510;2022-08-26T14:37:19;27.80;99.90
7694;DHT22;3889;48.162;11.510;2022-08-26T14:39:47;27.90;99.90
7694;DHT22;3889;48.162;11.510;2022-08-26T14:42:19;27.90;99.90
7694;DHT22;3889;48.162;11.510;2022-08-26T14:44:52;27.70;99.90
7694;DHT22;3889;48.162;11.510;2022-08-26T14:47:21;27.50;99.90
7694;DHT22;3889;48.162;11.510;2022-08-26T14:49:50;27.50;99.90
7694;DHT22;3889;48.162;11.510;2022-08-26T14:52:18;27.40;99.90
7694;DHT22;3889;48.162;11.510;2022-08-26T14:54:46;27.50;99.90
7694;DHT22;3889;48.162;11.510;2022-08-26T14:57:19;27.60;99.90
7694;DHT22;3889;48.162;11.510;2022-08-26T14:59:47;27.50;99.90
7694;DHT22;3889;48.162;11.510;2022-08-26T15:02:16;27.60;99.90
7694;DHT22;3889;48.162;11.510;2022-08-26T15:05:00;27.50;99.90
7694;DHT22;3889;48.162;11.510;2022-08-26T15:07:29;27.50;99.90
7694;DHT22;3889;48.162;11.510;2022-08-26T15:09:57;27.40;99.90
7694;DHT22;3889;48.162;11.510;2022-08-26T15:12:25;27.40;99.90
7694;DHT22;3889;48.162;11.510;2022-08-26T15:14:53;27.30;99.90
7694;DHT22;3889;48.162;11.510;2022-08-26T15:17:21;27.30;99.90
7694;DHT22;3889;48.162;11.510;2022-08-26T15:19:49;27.20;99.90
7694;DHT22;3889;48.162;11.510;2022-08-26T15:22:18;27.20;99.90
7694;DHT22;3889;48.162;11.510;2022-08-26T15:24:46;27.20;99.90
7694;DHT22;3889;48.162;11.510;2022-08-26T15:27:19;27.10;99.90
7694;DHT22;3889;48.162;11.510;2022-08-26T15:29:47;27.00;99.90
7694;DHT22;3889;48.162;11.510;2022-08-26T15:32:15;26.90;99.90
7694;DHT22;3889;48.162;11.510;2022-08-26T15:34:43;26.80;99.90
7694;DHT22;3889;48.162;11.510;2022-08-26T15:37:11;26.80;99.90
7694;DHT22;3889;48.162;11.510;2022-08-26T15:39:40;26.80;99.90
7694;DHT22;3889;48.162;11.510;2022-08-26T15:42:08;26.80;99.90
7694;DHT22;3889;48.162;11.510;2022-08-26T15:44:41;26.70;99.90
7694;DHT22;3889;48.162;11.510;2022-08-26T15:47:09;26.70;99.90
7694;DHT22;3889;48.162;11.510;2022-08-26T15:49:38;26.60;99.90
7694;DHT22;3889;48.162;11.510;2022-08-26T15:52:06;26.60;99.90
7694;DHT22;3889;48.162;11.510;2022-08-26T15:54:35;26.70;99.90
7694;DHT22;3889;48.162;11.510;2022-08-26T15:57:04;26.70;99.90
7694;DHT22;3889;48.162;11.510;2022-08-26T15:59:37;26.70;99.90
7694;DHT22;3889;48.162;11.510;2022-08-26T16:02:04;26.80;99.90
7694;DHT22;3889;48.162;11.510;2022-08-26T16:04:32;27.10;99.90
7694;DHT22;3889;48.162;11.510;2022-08-26T16:07:00;27.40;99.90
7694;DHT22;3889;48.162;11.510;2022-08-26T16:09:28;27.40;99.90
7694;DHT22;3889;48.162;11.510;2022-08-26T16:11:56;27.40;99.90
7694;DHT22;3889;48.162;11.510;2022-08-26T16:14:26;27.30;99.90
7694;DHT22;3889;48.162;11.510;2022-08-26T16:16:53;27.20;99.90
7694;DHT22;3889;48.162;11.510;2022-08-26T16:19:23;26.90;99.90
7694;DHT22;3889;48.162;11.510;2022-08-26T16:21:51;26.70;99.90
7694;DHT22;3889;48.162;11.510;2022-08-26T16:24:19;26.60;99.90